Time;durP1;ratioP1;P1;durP2;ratioP2;P2;SDS_P1;SDS_P2;PMS_P1;PMS_P2;Temp;Humidity;BMP_temperature;BMP_pressure;BME280_temperature;BME280_humidity;BME280_pressure;Samples;Min_cycle;Max_cycle;Signal;HPM_P1;HPM_P2
2022/08/18 00:01:42;;;;;;;13.27;10.30;;;;;;;;;;5061192;28;20052;-55
2022/08/18 00:04:09;;;;;;;17.42;10.30;;;;;;;;;;5051536;28;20079;-55
2022/08/18 00:06:34;;;;;;;13.18;9.63;;;;;;;;;;5051560;28;20074;-54
2022/08/18 00:09:04;;;;;;;11.80;9.38;;;;;;;;;;5051650;28;20482;-55
2022/08/18 00:11:32;;;;;;;18.02;10.20;;;;;;;;;;5057765;28;20447;-54
2022/08/18 00:13:57;;;;;;;14.23;10.85;;;;;;;;;;5050986;28;20048;-54
2022/08/18 00:16:23;;;;;;;12.82;9.45;;;;;;;;;;5067690;28;20063;-55
2022/08/18 00:18:48;;;;;;;14.15;10.60;;;;;;;;;;5051212;28;20055;-55
2022/08/18 00:21:14;;;;;;;15.13;10.55;;;;;;;;;;5060431;28;20028;-55
2022/08/18 00:23:39;;;;;;;18.42;11.23;;;;;;;;;;5058239;28;20025;-56
2022/08/18 00:26:05;;;;;;;13.80;10.35;;;;;;;;;;5051392;28;20021;-55
2022/08/18 00:28:30;;;;;;;13.10;10.18;;;;;;;;;;5050840;28;20021;-55
2022/08/18 00:30:56;;;;;;;19.88;10.95;;;;;;;;;;5051285;28;20497;-55
2022/08/18 00:33:21;;;;;;;15.40;11.18;;;;;;;;;;5050403;28;20083;-55
2022/08/18 00:35:47;;;;;;;15.75;10.50;;;;;;;;;;5066658;28;20024;-55
2022/08/18 00:38:12;;;;;;;15.52;10.77;;;;;;;;;;5068277;28;20482;-55
2022/08/18 00:40:44;;;;;;;16.30;10.43;;;;;;;;;;5057871;28;20016;-56
2022/08/18 00:43:19;;;;;;;15.68;9.75;;;;;;;;;;5061568;28;20027;-55
2022/08/18 00:45:45;;;;;;;15.20;9.77;;;;;;;;;;5054911;28;20078;-56
2022/08/18 00:48:12;;;;;;;11.77;8.35;;;;;;;;;;5066922;28;20033;-56
2022/08/18 00:50:42;;;;;;;14.05;8.02;;;;;;;;;;5051218;28;20029;-56
2022/08/18 00:53:14;;;;;;;10.02;7.97;;;;;;;;;;5066790;28;20493;-56
2022/08/18 00:55:43;;;;;;;10.13;7.82;;;;;;;;;;5058029;28;20060;-55
2022/08/18 00:58:14;;;;;;;10.60;8.07;;;;;;;;;;5059617;28;20021;-55
2022/08/18 01:00:40;;;;;;;10.85;8.05;;;;;;;;;;5064973;28;20397;-55
2022/08/18 01:03:11;;;;;;;9.68;7.28;;;;;;;;;;5067452;28;20028;-55
2022/08/18 01:05:46;;;;;;;15.45;8.80;;;;;;;;;;5056904;28;20189;-55
2022/08/18 01:08:14;;;;;;;9.40;7.70;;;;;;;;;;5061720;28;20053;-56
2022/08/18 01:10:41;;;;;;;10.98;8.20;;;;;;;;;;5063783;28;20494;-55
2022/08/18 01:13:08;;;;;;;12.15;8.15;;;;;;;;;;5068225;28;20029;-56
2022/08/18 01:15:33;;;;;;;14.18;8.30;;;;;;;;;;5055700;28;20021;-55
2022/08/18 01:23:47;;;;;;;10.88;8.10;;;;;;;;;;5054439;28;20091;-56
2022/08/18 01:26:15;;;;;;;12.90;8.75;;;;;;;;;;5056362;28;20107;-55
2022/08/18 01:28:43;;;;;;;11.93;8.60;;;;;;;;;;5054344;28;20025;-55
2022/08/18 01:31:12;;;;;;;12.00;9.00;;;;;;;;;;5056207;28;20025;-55
2022/08/18 01:33:42;;;;;;;13.02;8.80;;;;;;;;;;5068325;28;20021;-55
2022/08/18 01:36:08;;;;;;;11.73;9.40;;;;;;;;;;5064477;28;20059;-55
2022/08/18 01:38:33;;;;;;;11.52;8.93;;;;;;;;;;5074446;28;20024;-55
2022/08/18 01:40:59;;;;;;;11.68;9.15;;;;;;;;;;5056460;28;20104;-55
2022/08/18 01:43:25;;;;;;;13.82;9.43;;;;;;;;;;5058142;28;20024;-55
2022/08/18 01:45:50;;;;;;;12.63;9.20;;;;;;;;;;5065039;28;20021;-55
2022/08/18 01:48:16;;;;;;;11.45;8.88;;;;;;;;;;5067032;28;20029;-55
2022/08/18 01:50:43;;;;;;;12.88;9.23;;;;;;;;;;5073937;28;20058;-56
2022/08/18 01:53:10;;;;;;;12.40;9.52;;;;;;;;;;5073242;28;20390;-55
2022/08/18 01:55:37;;;;;;;14.05;9.10;;;;;;;;;;5073947;28;20024;-55
2022/08/18 01:58:03;;;;;;;15.20;9.65;;;;;;;;;;5060813;28;20041;-55
2022/08/18 02:00:30;;;;;;;16.08;9.40;;;;;;;;;;5070085;28;20032;-54
2022/08/18 02:02:55;;;;;;;15.43;10.05;;;;;;;;;;5051794;28;20025;-55
2022/08/18 02:05:30;;;;;;;13.95;9.50;;;;;;;;;;5053832;28;20036;-55
2022/08/18 02:07:56;;;;;;;13.32;9.85;;;;;;;;;;5066569;28;20035;-54
2022/08/18 02:10:21;;;;;;;15.15;10.80;;;;;;;;;;5057287;28;20138;-55
2022/08/18 02:12:47;;;;;;;16.77;10.43;;;;;;;;;;5056443;28;20020;-54
2022/08/18 02:15:12;;;;;;;17.23;10.70;;;;;;;;;;5065673;28;20156;-55
2022/08/18 02:17:39;;;;;;;13.50;10.32;;;;;;;;;;5065215;28;20539;-54
2022/08/18 02:20:06;;;;;;;14.18;10.68;;;;;;;;;;5056533;28;20029;-55
2022/08/18 02:22:32;;;;;;;14.43;10.88;;;;;;;;;;5069035;28;20059;-55
2022/08/18 02:24:57;;;;;;;16.15;10.27;;;;;;;;;;5060845;28;20051;-54
2022/08/18 02:27:23;;;;;;;15.95;11.70;;;;;;;;;;5062141;28;20367;-55
2022/08/18 02:29:48;;;;;;;13.23;10.77;;;;;;;;;;5052941;28;20466;-54
2022/08/18 02:32:13;;;;;;;15.77;11.40;;;;;;;;;;5067239;28;20029;-54
2022/08/18 02:34:41;;;;;;;14.80;11.02;;;;;;;;;;5053433;28;20017;-54
2022/08/18 02:37:07;;;;;;;16.98;11.63;;;;;;;;;;5053276;28;20447;-55
2022/08/18 02:39:36;;;;;;;15.70;11.57;;;;;;;;;;5062756;28;20063;-54
2022/08/18 02:42:06;;;;;;;14.07;11.57;;;;;;;;;;5055988;28;20111;-55
2022/08/18 02:44:31;;;;;;;;;;;;;;;;;;5066338;28;20242;-54
2022/08/18 02:46:57;;;;;;;16.10;11.45;;;;;;;;;;5052884;28;19923;-55
2022/08/18 02:49:23;;;;;;;17.27;11.38;;;;;;;;;;5067182;28;20054;-55
2022/08/18 02:51:50;;;;;;;19.38;12.73;;;;;;;;;;5070270;28;20025;-55
2022/08/18 02:54:17;;;;;;;17.38;11.48;;;;;;;;;;5052811;28;20035;-54
2022/08/18 02:56:44;;;;;;;18.15;12.00;;;;;;;;;;5061488;28;20052;-55
2022/08/18 02:59:16;;;;;;;17.38;11.57;;;;;;;;;;5058957;28;20057;-54
2022/08/18 03:01:45;;;;;;;19.05;12.98;;;;;;;;;;5053966;28;20078;-54
2022/08/18 03:04:14;;;;;;;17.43;13.03;;;;;;;;;;5072416;28;20024;-55
2022/08/18 03:06:40;;;;;;;;;;;;;;;;;;5073097;28;20070;-54
2022/08/18 03:09:07;;;;;;;15.90;11.40;;;;;;;;;;5071221;28;19908;-54
2022/08/18 03:11:33;;;;;;;17.88;11.50;;;;;;;;;;5069349;28;20029;-54
2022/08/18 03:14:00;;;;;;;15.88;12.02;;;;;;;;;;5056638;28;20027;-55
2022/08/18 03:16:25;;;;;;;18.55;12.07;;;;;;;;;;5062292;28;20112;-55
2022/08/18 03:18:52;;;;;;;16.15;11.10;;;;;;;;;;5052292;28;20192;-55
2022/08/18 03:21:26;;;;;;;16.65;11.48;;;;;;;;;;5069636;28;20025;-55
2022/08/18 03:23:53;;;;;;;14.32;11.07;;;;;;;;;;5064170;28;20060;-55
2022/08/18 03:26:21;;;;;;;16.25;11.35;;;;;;;;;;5052136;28;20051;-54
2022/08/18 03:28:49;;;;;;;14.85;11.18;;;;;;;;;;5066353;28;20044;-55
2022/08/18 03:31:16;;;;;;;21.08;12.13;;;;;;;;;;5069443;28;20030;-53
2022/08/18 03:33:43;;;;;;;17.20;11.48;;;;;;;;;;5051875;28;20067;-54
2022/08/18 03:36:15;;;;;;;17.33;12.05;;;;;;;;;;5062193;28;20105;-54
2022/08/18 03:38:42;;;;;;;18.55;12.95;;;;;;;;;;5056606;28;20082;-54
2022/08/18 03:41:10;;;;;;;17.65;11.80;;;;;;;;;;5070972;28;20028;-55
2022/08/18 03:43:36;;;;;;;18.13;12.40;;;;;;;;;;5070189;28;20390;-55
2022/08/18 03:46:05;;;;;;;16.58;11.90;;;;;;;;;;5071904;28;20016;-54
2022/08/18 03:48:32;;;;;;;;;;;;;;;;;;5056849;28;20040;-57
2022/08/18 03:51:05;;;;;;;19.00;12.07;;;;;;;;;;5051856;28;19936;-53
2022/08/18 03:53:32;;;;;;;20.95;13.70;;;;;;;;;;5058678;28;20028;-55
2022/08/18 03:55:57;;;;;;;19.63;13.70;;;;;;;;;;5059754;28;20024;-53
2022/08/18 03:58:23;;;;;;;19.98;13.85;;;;;;;;;;5051231;28;20052;-54
2022/08/18 04:00:48;;;;;;;20.80;13.40;;;;;;;;;;5067949;28;20082;-54
2022/08/18 04:03:14;;;;;;;18.73;12.85;;;;;;;;;;5057660;28;20111;-54
2022/08/18 04:05:39;;;;;;;19.02;13.15;;;;;;;;;;5060967;28;20021;-55
2022/08/18 04:08:05;;;;;;;20.02;13.40;;;;;;;;;;5065783;28;20496;-54
2022/08/18 04:10:31;;;;;;;21.00;14.07;;;;;;;;;;5069622;28;20150;-54
2022/08/18 04:12:57;;;;;;;18.88;13.65;;;;;;;;;;5056178;28;20085;-55
2022/08/18 04:15:23;;;;;;;21.63;13.88;;;;;;;;;;5062223;28;20399;-55
2022/08/18 04:17:49;;;;;;;18.73;13.20;;;;;;;;;;5064987;28;20039;-53
2022/08/18 04:20:15;;;;;;;19.30;13.68;;;;;;;;;;5055068;28;20029;-54
2022/08/18 04:22:41;;;;;;;22.60;13.63;;;;;;;;;;5065258;28;20110;-55
2022/08/18 04:25:10;;;;;;;20.48;13.68;;;;;;;;;;5042305;28;20062;-54
2022/08/18 04:27:38;;;;;;;18.98;13.57;;;;;;;;;;5057696;28;20031;-54
2022/08/18 04:30:04;;;;;;;16.98;12.48;;;;;;;;;;5068151;28;20039;-54
2022/08/18 04:32:30;;;;;;;18.52;13.88;;;;;;;;;;5065587;28;20025;-54
2022/08/18 04:34:55;;;;;;;17.02;12.32;;;;;;;;;;5051117;28;20115;-53
2022/08/18 04:37:21;;;;;;;20.60;14.02;;;;;;;;;;5063707;28;20039;-54
2022/08/18 04:39:47;;;;;;;19.77;13.73;;;;;;;;;;5054752;28;20025;-54
2022/08/18 04:42:12;;;;;;;20.30;13.73;;;;;;;;;;5070596;28;20033;-54
2022/08/18 04:44:38;;;;;;;20.40;13.23;;;;;;;;;;5061516;28;20111;-54
2022/08/18 04:47:04;;;;;;;18.05;13.27;;;;;;;;;;5051213;28;20033;-54
2022/08/18 04:49:30;;;;;;;20.13;14.07;;;;;;;;;;5066562;28;20139;-54
2022/08/18 04:54:40;;;;;;;20.85;13.23;;;;;;;;;;5070964;28;20051;-53
2022/08/18 04:57:07;;;;;;;19.25;13.93;;;;;;;;;;5071161;28;20465;-54
2022/08/18 04:59:33;;;;;;;20.25;13.40;;;;;;;;;;5069556;28;20548;-53
2022/08/18 05:02:04;;;;;;;19.15;13.55;;;;;;;;;;5050156;28;20037;-54
2022/08/18 05:04:30;;;;;;;18.33;12.88;;;;;;;;;;5059960;28;20400;-54
2022/08/18 05:06:56;;;;;;;18.13;13.43;;;;;;;;;;5071251;28;20504;-54
2022/08/18 05:09:21;;;;;;;24.55;14.30;;;;;;;;;;5070250;28;20024;-53
2022/08/18 05:11:47;;;;;;;19.80;13.30;;;;;;;;;;5055213;28;20044;-54
2022/08/18 05:14:13;;;;;;;19.05;12.55;;;;;;;;;;5069352;28;20020;-54
2022/08/18 05:16:39;;;;;;;18.45;12.38;;;;;;;;;;5058703;28;20037;-55
2022/08/18 05:19:07;;;;;;;17.48;12.13;;;;;;;;;;5050799;28;20051;-54
2022/08/18 05:21:35;;;;;;;18.88;12.30;;;;;;;;;;5054005;28;20032;-54
2022/08/18 05:24:01;;;;;;;18.20;12.20;;;;;;;;;;5062512;28;20379;-54
2022/08/18 05:26:26;;;;;;;18.20;12.32;;;;;;;;;;5062661;28;20030;-56
2022/08/18 05:28:52;;;;;;;17.13;11.85;;;;;;;;;;5054565;28;20024;-56
2022/08/18 05:31:19;;;;;;;21.58;13.65;;;;;;;;;;5066373;28;20025;-56
2022/08/18 05:33:46;;;;;;;19.30;12.70;;;;;;;;;;5050588;28;20017;-56
2022/08/18 05:36:36;;;;;;;17.90;11.98;;;;;;;;;;5062073;28;20029;-56
2022/08/18 05:39:44;;;;;;;20.30;12.88;;;;;;;;;;5070485;28;20107;-56
2022/08/18 05:42:18;;;;;;;18.70;12.48;;;;;;;;;;5052259;28;20054;-57
2022/08/18 05:44:48;;;;;;;18.13;12.43;;;;;;;;;;5069102;28;20032;-57
2022/08/18 05:47:22;;;;;;;24.98;15.35;;;;;;;;;;5053081;28;20529;-57
2022/08/18 05:49:48;;;;;;;24.52;14.98;;;;;;;;;;5063851;28;20057;-57
2022/08/18 05:52:21;;;;;;;21.67;13.70;;;;;;;;;;5073060;28;20032;-57
2022/08/18 05:57:51;;;;;;;24.60;15.38;;;;;;;;;;5073915;28;20027;-57
2022/08/18 06:00:23;;;;;;;25.00;15.48;;;;;;;;;;5058512;28;20048;-57
2022/08/18 06:03:00;;;;;;;23.45;15.63;;;;;;;;;;5069036;28;20025;-57
2022/08/18 06:05:35;;;;;;;19.55;13.48;;;;;;;;;;5054043;28;20393;-57
2022/08/18 06:08:12;;;;;;;20.60;13.68;;;;;;;;;;5053839;28;20029;-56
2022/08/18 06:10:42;;;;;;;20.95;14.57;;;;;;;;;;5056868;28;20036;-55
2022/08/18 06:13:10;;;;;;;18.33;11.95;;;;;;;;;;5064560;28;20021;-57
2022/08/18 06:15:50;;;;;;;14.95;10.32;;;;;;;;;;5053539;28;20025;-56
2022/08/18 06:18:48;;;;;;;18.13;12.00;;;;;;;;;;5053511;28;20025;-56
2022/08/18 06:21:44;;;;;;;15.90;11.60;;;;;;;;;;5051036;28;20036;-57
2022/08/18 06:24:19;;;;;;;19.95;10.50;;;;;;;;;;5070879;28;20025;-57
2022/08/18 06:26:47;;;;;;;13.77;9.75;;;;;;;;;;5073519;28;20378;-56
2022/08/18 06:29:33;;;;;;;15.45;10.27;;;;;;;;;;5072963;28;20082;-56
2022/08/18 06:32:36;;;;;;;15.15;10.35;;;;;;;;;;5055909;28;20039;-56
2022/08/18 06:35:17;;;;;;;16.85;10.90;;;;;;;;;;5073444;28;20113;-57
2022/08/18 06:40:48;;;;;;;13.63;9.07;;;;;;;;;;5061507;28;20028;-56
2022/08/18 06:43:16;;;;;;;14.85;10.15;;;;;;;;;;5071611;28;20028;-56
2022/08/18 06:45:47;;;;;;;16.67;10.85;;;;;;;;;;5056770;28;20053;-56
2022/08/18 06:48:21;;;;;;;15.20;10.88;;;;;;;;;;5072908;28;20025;-56
2022/08/18 06:51:00;;;;;;;16.50;11.27;;;;;;;;;;5062675;28;20123;-57
2022/08/18 06:53:51;;;;;;;15.52;10.82;;;;;;;;;;5067504;28;20086;-57
2022/08/18 06:56:42;;;;;;;16.05;10.52;;;;;;;;;;5066261;28;20040;-57
2022/08/18 06:59:14;;;;;;;16.55;10.82;;;;;;;;;;5065959;28;20040;-56
2022/08/18 07:01:39;;;;;;;15.35;10.15;;;;;;;;;;5069590;28;20477;-57
2022/08/18 07:04:04;;;;;;;17.15;10.77;;;;;;;;;;5058629;28;20056;-57
2022/08/18 07:06:30;;;;;;;13.38;9.82;;;;;;;;;;5072579;28;20370;-56
2022/08/18 07:09:16;;;;;;;21.83;14.38;;;;;;;;;;5058600;28;20053;-57
2022/08/18 07:11:57;;;;;;;20.10;13.02;;;;;;;;;;5055980;28;20025;-56
2022/08/18 07:14:24;;;;;;;16.02;10.40;;;;;;;;;;5072115;28;20070;-56
2022/08/18 07:17:04;;;;;;;14.25;10.10;;;;;;;;;;5058193;28;20052;-57
2022/08/18 07:19:31;;;;;;;13.82;9.68;;;;;;;;;;5072659;28;20054;-57
2022/08/18 07:22:13;;;;;;;12.82;9.63;;;;;;;;;;5061376;28;20056;-56
2022/08/18 07:24:45;;;;;;;12.60;9.05;;;;;;;;;;5072060;28;20133;-57
2022/08/18 07:27:16;;;;;;;13.75;9.50;;;;;;;;;;5070204;28;20029;-57
2022/08/18 07:30:04;;;;;;;12.15;8.70;;;;;;;;;;5058262;28;20033;-56
2022/08/18 07:32:38;;;;;;;12.30;9.07;;;;;;;;;;5071196;28;20389;-57
2022/08/18 07:35:07;;;;;;;12.52;8.75;;;;;;;;;;5055816;28;20521;-56
2022/08/18 07:37:41;;;;;;;12.60;8.90;;;;;;;;;;5071948;28;20032;-56
2022/08/18 07:40:12;;;;;;;11.70;8.80;;;;;;;;;;5060521;28;20048;-55
2022/08/18 07:42:51;;;;;;;12.75;8.98;;;;;;;;;;5050928;28;20060;-55
2022/08/18 07:45:25;;;;;;;13.60;9.17;;;;;;;;;;5057518;28;20043;-56
2022/08/18 07:47:59;;;;;;;14.18;9.57;;;;;;;;;;5061536;28;20029;-56
2022/08/18 07:50:26;;;;;;;15.32;9.38;;;;;;;;;;5051839;28;20056;-56
2022/08/18 07:53:22;;;;;;;12.27;9.32;;;;;;;;;;5070183;28;20512;-56
2022/08/18 07:55:54;;;;;;;17.15;11.20;;;;;;;;;;5060629;28;20033;-56
2022/08/18 07:58:43;;;;;;;15.07;10.90;;;;;;;;;;5051168;28;20486;-56
2022/08/18 08:01:11;;;;;;;14.85;10.02;;;;;;;;;;5050771;28;20071;-55
2022/08/18 08:04:10;;;;;;;11.33;9.33;;;;;;;;;;5062067;28;20028;-56
2022/08/18 08:06:52;;;;;;;14.30;9.60;;;;;;;;;;5069225;28;20037;-56
2022/08/18 08:09:50;;;;;;;16.40;9.20;;;;;;;;;;5060192;28;20794;-56
2022/08/18 08:12:41;;;;;;;15.57;11.35;;;;;;;;;;5054293;28;20032;-56
2022/08/18 08:15:24;;;;;;;15.52;9.18;;;;;;;;;;5063169;28;20028;-56
2022/08/18 08:18:24;;;;;;;12.70;9.05;;;;;;;;;;5051327;28;20489;-56
2022/08/18 08:21:04;;;;;;;;;;;;;;;;;;5058479;28;20031;-56
2022/08/18 08:23:53;;;;;;;10.85;8.32;;;;;;;;;;5057969;28;20297;-57
2022/08/18 08:26:29;;;;;;;16.50;8.80;;;;;;;;;;5051270;28;20031;-56
2022/08/18 08:29:13;;;;;;;13.73;9.40;;;;;;;;;;5066764;28;20028;-56
2022/08/18 08:31:49;;;;;;;15.27;8.90;;;;;;;;;;5055757;28;20033;-56
2022/08/18 08:34:32;;;;;;;12.88;8.43;;;;;;;;;;5051196;28;20482;-56
2022/08/18 08:37:04;;;;;;;10.65;8.02;;;;;;;;;;5068927;28;20047;-56
2022/08/18 08:39:48;;;;;;;14.50;10.27;;;;;;;;;;5056672;28;20060;-56
2022/08/18 08:42:26;;;;;;;12.75;8.73;;;;;;;;;;5055069;28;20028;-56
2022/08/18 08:44:59;;;;;;;13.68;10.23;;;;;;;;;;5059119;28;20435;-56
2022/08/18 08:47:43;;;;;;;13.93;9.10;;;;;;;;;;5065907;28;20031;-57
2022/08/18 08:50:14;;;;;;;12.05;8.48;;;;;;;;;;5051178;28;20610;-56
2022/08/18 08:52:51;;;;;;;15.50;10.30;;;;;;;;;;5059920;28;20033;-57
2022/08/18 08:55:24;;;;;;;10.38;8.18;;;;;;;;;;5071094;28;20054;-56
2022/08/18 08:58:01;;;;;;;12.15;8.15;;;;;;;;;;5054169;28;20507;-56
2022/08/18 09:00:28;;;;;;;9.85;7.57;;;;;;;;;;5070993;28;20082;-57
2022/08/18 09:03:07;;;;;;;9.60;7.28;;;;;;;;;;5057003;28;20025;-57
2022/08/18 09:05:47;;;;;;;11.60;8.25;;;;;;;;;;5067329;28;20497;-56
2022/08/18 09:08:38;;;;;;;11.57;7.57;;;;;;;;;;5050800;28;20033;-56
2022/08/18 09:11:28;;;;;;;12.35;7.82;;;;;;;;;;5066524;28;20032;-56
2022/08/18 09:13:59;;;;;;;9.70;7.60;;;;;;;;;;5060493;28;20028;-55
2022/08/18 09:16:58;;;;;;;12.13;8.68;;;;;;;;;;5074584;28;20039;-56
2022/08/18 09:19:48;;;;;;;10.60;8.57;;;;;;;;;;5071557;28;20033;-56
2022/08/18 09:22:32;;;;;;;9.73;7.65;;;;;;;;;;5064051;28;20028;-56
2022/08/18 09:24:58;;;;;;;10.23;7.88;;;;;;;;;;5074076;28;20128;-56
2022/08/18 09:27:45;;;;;;;10.30;7.30;;;;;;;;;;5054457;28;20087;-56
2022/08/18 09:30:45;;;;;;;9.93;7.32;;;;;;;;;;5054489;28;20486;-56
2022/08/18 09:33:33;;;;;;;9.50;6.90;;;;;;;;;;5053379;28;20108;-56
2022/08/18 09:36:19;;;;;;;13.23;7.43;;;;;;;;;;5064479;28;20024;-57
2022/08/18 09:42:03;;;;;;;8.80;7.25;;;;;;;;;;5060502;28;20036;-56
2022/08/18 09:44:40;;;;;;;10.95;8.27;;;;;;;;;;5072221;28;20025;-57
2022/08/18 09:47:07;;;;;;;12.85;8.73;;;;;;;;;;5058380;28;20028;-57
2022/08/18 09:49:42;;;;;;;12.02;8.38;;;;;;;;;;5074037;28;20032;-56
2022/08/18 09:52:20;;;;;;;10.77;8.77;;;;;;;;;;5065836;28;20501;-57
2022/08/18 09:54:57;;;;;;;13.43;8.80;;;;;;;;;;5057394;28;20057;-58
2022/08/18 09:57:27;;;;;;;12.57;9.45;;;;;;;;;;5074125;28;20028;-58
2022/08/18 09:59:52;;;;;;;12.43;8.73;;;;;;;;;;5060861;28;20020;-56
2022/08/18 10:02:30;;;;;;;10.15;8.50;;;;;;;;;;5053023;28;20043;-57
2022/08/18 10:05:14;;;;;;;9.97;8.60;;;;;;;;;;5074168;28;20101;-57
2022/08/18 10:07:44;;;;;;;10.52;8.88;;;;;;;;;;5062962;28;20025;-57
2022/08/18 10:10:24;;;;;;;11.55;8.75;;;;;;;;;;5073647;28;20028;-57
2022/08/18 10:13:01;;;;;;;11.13;8.40;;;;;;;;;;5066454;28;20025;-56
2022/08/18 10:15:39;;;;;;;12.68;8.60;;;;;;;;;;5053890;28;20497;-57
2022/08/18 10:18:08;;;;;;;10.83;8.70;;;;;;;;;;5070402;28;20036;-57
2022/08/18 10:20:42;;;;;;;10.43;9.20;;;;;;;;;;5068809;28;20036;-56
2022/08/18 10:23:08;;;;;;;11.27;9.65;;;;;;;;;;5062047;28;20020;-56
2022/08/18 10:25:36;;;;;;;15.20;10.50;;;;;;;;;;5059284;28;20029;-56
2022/08/18 10:28:04;;;;;;;10.32;8.10;;;;;;;;;;5054366;28;20064;-56
2022/08/18 10:30:30;;;;;;;11.47;8.43;;;;;;;;;;5073402;28;20024;-57
2022/08/18 10:32:56;;;;;;;11.77;9.50;;;;;;;;;;5063033;28;20078;-57
2022/08/18 10:35:34;;;;;;;13.52;9.68;;;;;;;;;;5053255;28;20070;-56
2022/08/18 10:38:01;;;;;;;12.57;9.57;;;;;;;;;;5069414;28;20032;-56
2022/08/18 10:40:27;;;;;;;13.90;9.50;;;;;;;;;;5059724;28;20021;-57
2022/08/18 10:43:13;;;;;;;11.35;9.18;;;;;;;;;;5061964;28;20388;-56
2022/08/18 10:45:51;;;;;;;11.63;9.07;;;;;;;;;;5056870;28;20512;-57
2022/08/18 10:48:29;;;;;;;10.77;9.50;;;;;;;;;;5066502;28;20031;-57
2022/08/18 10:51:19;;;;;;;14.48;10.35;;;;;;;;;;5064610;28;20064;-57
2022/08/18 10:54:30;;;;;;;12.48;10.07;;;;;;;;;;5053867;28;20036;-56
2022/08/18 10:57:11;;;;;;;11.80;9.90;;;;;;;;;;5064880;28;20153;-58
2022/08/18 11:00:08;;;;;;;12.45;9.70;;;;;;;;;;5065868;28;20524;-58
2022/08/18 11:03:02;;;;;;;11.57;9.50;;;;;;;;;;5062825;28;20465;-58
2022/08/18 11:05:28;;;;;;;12.30;9.50;;;;;;;;;;5068482;28;20052;-58
2022/08/18 11:07:58;;;;;;;11.13;8.95;;;;;;;;;;5066911;28;20063;-57
2022/08/18 11:10:49;;;;;;;11.73;9.80;;;;;;;;;;5052736;28;20560;-57
2022/08/18 11:13:33;;;;;;;12.65;9.48;;;;;;;;;;5067420;28;20025;-58
2022/08/18 11:16:21;;;;;;;14.27;9.95;;;;;;;;;;5052498;28;20500;-57
2022/08/18 11:18:50;;;;;;;12.70;9.90;;;;;;;;;;5060385;28;20075;-58
2022/08/18 11:21:33;;;;;;;13.32;9.95;;;;;;;;;;5052264;28;20216;-58
2022/08/18 11:24:03;;;;;;;18.80;11.07;;;;;;;;;;5061074;28;20396;-57
2022/08/18 11:26:35;;;;;;;12.13;9.40;;;;;;;;;;5059181;28;20017;-58
2022/08/18 11:29:33;;;;;;;16.40;10.88;;;;;;;;;;5051796;28;20029;-57
2022/08/18 11:32:03;;;;;;;12.95;10.82;;;;;;;;;;5061459;28;20440;-58
2022/08/18 11:34:42;;;;;;;12.18;10.77;;;;;;;;;;5072066;28;20112;-58
2022/08/18 11:37:22;;;;;;;12.70;11.35;;;;;;;;;;5055680;28;20551;-57
2022/08/18 11:39:50;;;;;;;14.55;11.88;;;;;;;;;;5062594;28;20123;-58
2022/08/18 11:42:18;;;;;;;12.38;10.35;;;;;;;;;;5063147;28;20025;-57
2022/08/18 11:44:44;;;;;;;11.77;9.50;;;;;;;;;;5069636;28;20074;-58
2022/08/18 11:47:19;;;;;;;12.63;10.15;;;;;;;;;;5066637;28;20490;-57
2022/08/18 11:50:08;;;;;;;14.15;10.70;;;;;;;;;;5060083;28;20051;-57
2022/08/18 11:52:48;;;;;;;14.93;11.75;;;;;;;;;;5051009;28;20429;-57
2022/08/18 11:55:28;;;;;;;16.58;11.60;;;;;;;;;;5051925;28;20390;-58
2022/08/18 11:57:56;;;;;;;17.73;12.55;;;;;;;;;;5064069;28;20028;-57
2022/08/18 12:00:44;;;;;;;13.25;10.70;;;;;;;;;;5071251;28;20028;-57
2022/08/18 12:03:18;;;;;;;;;;;;;;;;;;5050918;28;20437;-58
2022/08/18 12:05:52;;;;;;;12.77;10.15;;;;;;;;;;5063110;28;19920;-57
2022/08/18 12:08:22;;;;;;;13.23;10.15;;;;;;;;;;5070567;28;20096;-57
2022/08/18 12:10:48;;;;;;;14.25;11.32;;;;;;;;;;5057022;28;20078;-57
2022/08/18 12:13:22;;;;;;;12.65;10.00;;;;;;;;;;5060772;28;20021;-57
2022/08/18 12:16:06;;;;;;;11.93;9.77;;;;;;;;;;5051360;28;20032;-57
2022/08/18 12:18:31;;;;;;;13.93;10.02;;;;;;;;;;5051455;28;20112;-58
2022/08/18 12:20:57;;;;;;;12.15;10.45;;;;;;;;;;5053648;28;20100;-57
2022/08/18 12:23:23;;;;;;;12.40;10.88;;;;;;;;;;5050502;28;20478;-58
2022/08/18 12:25:48;;;;;;;12.25;10.95;;;;;;;;;;5051402;28;20025;-57
2022/08/18 12:28:13;;;;;;;15.57;11.27;;;;;;;;;;5066944;28;20510;-57
2022/08/18 12:30:39;;;;;;;11.60;10.13;;;;;;;;;;5058573;28;20343;-57
2022/08/18 12:33:04;;;;;;;12.40;10.43;;;;;;;;;;5070535;28;20025;-58
2022/08/18 12:35:30;;;;;;;14.13;11.20;;;;;;;;;;5056556;28;20025;-57
2022/08/18 12:37:55;;;;;;;13.15;10.45;;;;;;;;;;5067327;28;20039;-57
2022/08/18 12:40:21;;;;;;;11.48;9.90;;;;;;;;;;5051337;28;20025;-57
2022/08/18 12:42:48;;;;;;;12.40;10.40;;;;;;;;;;5049658;28;20435;-57
2022/08/18 12:45:14;;;;;;;14.35;11.32;;;;;;;;;;5064662;28;20032;-57
2022/08/18 12:47:40;;;;;;;12.68;11.20;;;;;;;;;;5055197;28;20025;-57
2022/08/18 12:50:06;;;;;;;15.30;11.70;;;;;;;;;;5060522;28;20047;-58
2022/08/18 12:52:32;;;;;;;12.07;10.10;;;;;;;;;;5065282;28;20118;-58
2022/08/18 12:54:57;;;;;;;11.70;10.00;;;;;;;;;;5067961;28;20044;-57
2022/08/18 12:57:26;;;;;;;16.27;10.85;;;;;;;;;;5074374;28;20397;-57
2022/08/18 12:59:53;;;;;;;;;;;;;;;;;;5054921;28;20061;-58
2022/08/18 13:02:19;;;;;;;12.43;10.57;;;;;;;;;;5054227;28;19909;-57
2022/08/18 13:04:45;;;;;;;10.43;9.32;;;;;;;;;;5067490;28;20031;-57
2022/08/18 13:07:12;;;;;;;13.23;9.88;;;;;;;;;;5074829;28;20021;-57
2022/08/18 13:09:38;;;;;;;13.98;11.55;;;;;;;;;;5070669;28;20052;-57
2022/08/18 13:12:05;;;;;;;12.35;10.77;;;;;;;;;;5053817;28;20029;-58
2022/08/18 13:14:30;;;;;;;12.15;10.90;;;;;;;;;;5054376;28;20041;-58
2022/08/18 13:16:56;;;;;;;12.23;10.93;;;;;;;;;;5054731;28;20060;-57
2022/08/18 13:19:21;;;;;;;14.93;11.52;;;;;;;;;;5070743;28;20025;-57
2022/08/18 13:21:47;;;;;;;12.13;10.65;;;;;;;;;;5060749;28;20066;-57
2022/08/18 13:24:12;;;;;;;16.10;11.93;;;;;;;;;;5074388;28;20447;-57
2022/08/18 13:26:43;;;;;;;16.00;11.25;;;;;;;;;;5074398;28;20394;-57
2022/08/18 13:29:09;;;;;;;14.60;10.90;;;;;;;;;;5053998;28;20025;-57
2022/08/18 13:31:36;;;;;;;16.52;12.20;;;;;;;;;;5053711;28;20029;-57
2022/08/18 13:34:03;;;;;;;20.70;11.95;;;;;;;;;;5054342;28;20032;-57
2022/08/18 13:36:43;;;;;;;14.65;11.95;;;;;;;;;;5054630;28;20024;-57
2022/08/18 13:39:10;;;;;;;13.25;11.48;;;;;;;;;;5054265;28;20512;-57
2022/08/18 13:41:36;;;;;;;13.60;11.25;;;;;;;;;;5061468;28;20035;-57
2022/08/18 13:44:01;;;;;;;15.18;12.05;;;;;;;;;;5071600;28;20032;-57
2022/08/18 13:46:26;;;;;;;13.00;10.88;;;;;;;;;;5074229;28;20058;-57
2022/08/18 13:48:52;;;;;;;11.55;10.23;;;;;;;;;;5057635;28;20070;-57
2022/08/18 13:51:23;;;;;;;13.65;10.52;;;;;;;;;;5066392;28;20036;-57
2022/08/18 13:53:48;;;;;;;13.98;10.82;;;;;;;;;;5064064;28;20441;-58
2022/08/18 13:56:14;;;;;;;14.27;11.23;;;;;;;;;;5058719;28;20119;-57
2022/08/18 13:58:39;;;;;;;12.98;11.57;;;;;;;;;;5068703;28;20021;-58
2022/08/18 14:01:06;;;;;;;13.18;11.10;;;;;;;;;;5053823;28;20401;-57
2022/08/18 14:03:34;;;;;;;15.82;11.98;;;;;;;;;;5052933;28;20110;-57
2022/08/18 14:06:01;;;;;;;15.07;11.52;;;;;;;;;;5068541;28;20028;-57
2022/08/18 14:08:28;;;;;;;14.90;10.73;;;;;;;;;;5057389;28;20032;-57
2022/08/18 14:10:57;;;;;;;15.05;12.18;;;;;;;;;;5067202;28;20036;-58
2022/08/18 14:13:22;;;;;;;12.65;10.82;;;;;;;;;;5052644;28;20052;-57
2022/08/18 14:15:50;;;;;;;14.73;11.13;;;;;;;;;;5053547;28;20065;-57
2022/08/18 14:18:15;;;;;;;11.63;10.43;;;;;;;;;;5065367;28;20447;-57
2022/08/18 14:28:54;;;;;;;12.68;10.40;;;;;;;;;;5063888;28;20044;-57
2022/08/18 14:31:19;;;;;;;15.05;11.38;;;;;;;;;;5052613;28;20029;-57
2022/08/18 14:33:45;;;;;;;12.40;10.70;;;;;;;;;;5069413;28;20100;-57
2022/08/18 14:36:12;;;;;;;13.98;11.20;;;;;;;;;;5052062;28;20073;-57
2022/08/18 14:38:38;;;;;;;13.25;11.50;;;;;;;;;;5061402;28;20021;-57
2022/08/18 14:41:07;;;;;;;13.73;11.35;;;;;;;;;;5073241;28;20106;-57
2022/08/18 14:43:34;;;;;;;;;;;;;;;;;;5061672;28;20016;-57
2022/08/18 14:46:03;;;;;;;12.93;10.57;;;;;;;;;;5068964;28;19909;-58
2022/08/18 14:48:30;;;;;;;12.55;10.95;;;;;;;;;;5052985;28;20028;-58
2022/08/18 14:50:58;;;;;;;11.95;10.65;;;;;;;;;;5052834;28;20540;-58
2022/08/18 14:53:27;;;;;;;12.75;10.80;;;;;;;;;;5052158;28;20110;-57
2022/08/18 14:55:54;;;;;;;13.18;10.18;;;;;;;;;;5071780;28;20024;-57
2022/08/18 14:58:23;;;;;;;12.45;10.43;;;;;;;;;;5063759;28;20028;-57
2022/08/18 15:00:48;;;;;;;14.02;11.32;;;;;;;;;;5065357;28;20039;-57
2022/08/18 15:03:13;;;;;;;12.98;10.27;;;;;;;;;;5053859;28;20445;-57
2022/08/18 15:05:39;;;;;;;13.10;11.50;;;;;;;;;;5053167;28;20378;-57
2022/08/18 15:08:04;;;;;;;12.52;10.95;;;;;;;;;;5059095;28;20067;-57
2022/08/18 15:10:31;;;;;;;12.90;10.63;;;;;;;;;;5063571;28;20537;-57
2022/08/18 15:12:58;;;;;;;13.88;11.90;;;;;;;;;;5071090;28;20032;-58
2022/08/18 15:15:24;;;;;;;12.70;11.27;;;;;;;;;;5056390;28;20020;-57